sensor_id;sensor_type;location;lat;lon;timestamp;temperature;humidity
67799;SHT30;54596;43.216;27.904;2022-09-13T00:00:06;18.99;70.58
67799;SHT30;54596;43.216;27.904;2022-09-13T00:02:32;18.84;71.17
67799;SHT30;54596;43.216;27.904;2022-09-13T00:04:57;18.69;71.52
67799;SHT30;54596;43.216;27.904;2022-09-13T00:07:23;18.68;71.55
67799;SHT30;54596;43.216;27.904;2022-09-13T00:09:48;18.63;71.55
67799;SHT30;54596;43.216;27.904;2022-09-13T00:12:14;18.71;71.45
67799;SHT30;54596;43.216;27.904;2022-09-13T00:14:40;18.77;71.00
67799;SHT30;54596;43.216;27.904;2022-09-13T00:17:05;18.71;71.12
67799;SHT30;54596;43.216;27.904;2022-09-13T00:19:31;18.64;70.64
67799;SHT30;54596;43.216;27.904;2022-09-13T00:21:57;18.57;70.55
67799;SHT30;54596;43.216;27.904;2022-09-13T00:24:22;18.54;69.94
67799;SHT30;54596;43.216;27.904;2022-09-13T00:26:48;18.49;69.41
67799;SHT30;54596;43.216;27.904;2022-09-13T00:29:13;18.41;69.49
67799;SHT30;54596;43.216;27.904;2022-09-13T00:31:39;18.41;69.34
67799;SHT30;54596;43.216;27.904;2022-09-13T00:34:04;18.36;68.44
67799;SHT30;54596;43.216;27.904;2022-09-13T00:36:30;18.40;67.93
67799;SHT30;54596;43.216;27.904;2022-09-13T00:38:55;18.29;68.28
67799;SHT30;54596;43.216;27.904;2022-09-13T00:41:21;18.22;67.97
67799;SHT30;54596;43.216;27.904;2022-09-13T00:43:52;18.17;68.11
67799;SHT30;54596;43.216;27.904;2022-09-13T00:48:52;18.30;68.40
67799;SHT30;54596;43.216;27.904;2022-09-13T00:51:19;18.37;68.22
67799;SHT30;54596;43.216;27.904;2022-09-13T00:53:48;18.30;67.57
67799;SHT30;54596;43.216;27.904;2022-09-13T00:56:38;18.23;67.52
67799;SHT30;54596;43.216;27.904;2022-09-13T00:59:12;18.25;67.46
67799;SHT30;54596;43.216;27.904;2022-09-13T01:01:45;18.29;67.39
67799;SHT30;54596;43.216;27.904;2022-09-13T01:04:11;18.30;67.23
67799;SHT30;54596;43.216;27.904;2022-09-13T01:06:38;18.29;66.71
67799;SHT30;54596;43.216;27.904;2022-09-13T01:09:05;18.28;66.36
67799;SHT30;54596;43.216;27.904;2022-09-13T01:14:18;18.28;65.98
67799;SHT30;54596;43.216;27.904;2022-09-13T01:16:44;18.32;65.38
67799;SHT30;54596;43.216;27.904;2022-09-13T01:19:09;18.32;64.10
67799;SHT30;54596;43.216;27.904;2022-09-13T01:37:58;18.05;64.97
67799;SHT30;54596;43.216;27.904;2022-09-13T01:43:24;17.99;64.52
67799;SHT30;54596;43.216;27.904;2022-09-13T01:45:59;17.85;64.90
67799;SHT30;54596;43.216;27.904;2022-09-13T01:52:04;17.85;64.76
67799;SHT30;54596;43.216;27.904;2022-09-13T01:54:41;17.85;64.51
67799;SHT30;54596;43.216;27.904;2022-09-13T01:57:31;17.88;64.44
67799;SHT30;54596;43.216;27.904;2022-09-13T02:00:07;17.88;64.19
67799;SHT30;54596;43.216;27.904;2022-09-13T02:02:41;17.80;64.21
67799;SHT30;54596;43.216;27.904;2022-09-13T02:05:27;17.75;64.57
67799;SHT30;54596;43.216;27.904;2022-09-13T02:08:00;17.69;64.51
67799;SHT30;54596;43.216;27.904;2022-09-13T02:10:34;17.63;64.60
67799;SHT30;54596;43.216;27.904;2022-09-13T02:13:05;17.61;64.73
67799;SHT30;54596;43.216;27.904;2022-09-13T02:15:45;17.55;64.73
67799;SHT30;54596;43.216;27.904;2022-09-13T02:18:16;17.54;64.84
67799;SHT30;54596;43.216;27.904;2022-09-13T02:20:46;17.54;64.74
67799;SHT30;54596;43.216;27.904;2022-09-13T02:23:25;17.47;64.93
67799;SHT30;54596;43.216;27.904;2022-09-13T02:25:56;17.42;64.93
67799;SHT30;54596;43.216;27.904;2022-09-13T02:28:27;17.42;64.97
67799;SHT30;54596;43.216;27.904;2022-09-13T02:30:53;17.39;64.87
67799;SHT30;54596;43.216;27.904;2022-09-13T02:33:26;17.32;65.31
67799;SHT30;54596;43.216;27.904;2022-09-13T02:35:58;17.32;65.67
67799;SHT30;54596;43.216;27.904;2022-09-13T02:41:27;17.22;65.87
67799;SHT30;54596;43.216;27.904;2022-09-13T02:44:05;17.20;65.93
67799;SHT30;54596;43.216;27.904;2022-09-13T02:49:12;17.08;66.18
67799;SHT30;54596;43.216;27.904;2022-09-13T02:51:54;17.01;66.39
67799;SHT30;54596;43.216;27.904;2022-09-13T02:54:31;17.01;66.49
67799;SHT30;54596;43.216;27.904;2022-09-13T02:59:38;16.94;66.76
67799;SHT30;54596;43.216;27.904;2022-09-13T03:02:06;16.85;67.11
67799;SHT30;54596;43.216;27.904;2022-09-13T03:04:34;16.85;67.42
67799;SHT30;54596;43.216;27.904;2022-09-13T03:07:00;16.85;67.32
67799;SHT30;54596;43.216;27.904;2022-09-13T03:09:29;16.87;67.24
67799;SHT30;54596;43.216;27.904;2022-09-13T03:20:39;16.99;66.13
67799;SHT30;54596;43.216;27.904;2022-09-13T03:26:11;16.92;66.30
67799;SHT30;54596;43.216;27.904;2022-09-13T03:31:16;16.84;66.63
67799;SHT30;54596;43.216;27.904;2022-09-13T03:36:23;16.78;66.99
67799;SHT30;54596;43.216;27.904;2022-09-13T03:39:00;16.73;67.05
67799;SHT30;54596;43.216;27.904;2022-09-13T03:41:38;16.68;67.56
67799;SHT30;54596;43.216;27.904;2022-09-13T03:44:08;16.67;67.31
67799;SHT30;54596;43.216;27.904;2022-09-13T03:46:40;16.63;67.40
67799;SHT30;54596;43.216;27.904;2022-09-13T03:49:09;16.66;67.43
67799;SHT30;54596;43.216;27.904;2022-09-13T03:51:36;16.61;67.44
67799;SHT30;54596;43.216;27.904;2022-09-13T03:54:09;16.63;67.14
67799;SHT30;54596;43.216;27.904;2022-09-13T03:56:35;16.61;66.70
67799;SHT30;54596;43.216;27.904;2022-09-13T03:59:01;16.63;66.66
67799;SHT30;54596;43.216;27.904;2022-09-13T04:01:26;16.64;66.61
67799;SHT30;54596;43.216;27.904;2022-09-13T04:03:52;16.68;66.73
67799;SHT30;54596;43.216;27.904;2022-09-13T04:06:18;16.73;66.64
67799;SHT30;54596;43.216;27.904;2022-09-13T04:08:43;16.80;66.59
67799;SHT30;54596;43.216;27.904;2022-09-13T04:11:09;16.80;65.99
67799;SHT30;54596;43.216;27.904;2022-09-13T04:13:37;16.81;65.68
67799;SHT30;54596;43.216;27.904;2022-09-13T04:16:04;16.88;65.58
67799;SHT30;54596;43.216;27.904;2022-09-13T04:18:30;17.02;65.11
67799;SHT30;54596;43.216;27.904;2022-09-13T04:20:57;17.14;64.87
67799;SHT30;54596;43.216;27.904;2022-09-13T04:23:24;17.19;64.86
67799;SHT30;54596;43.216;27.904;2022-09-13T04:25:50;17.23;65.11
67799;SHT30;54596;43.216;27.904;2022-09-13T04:28:19;17.26;65.32
67799;SHT30;54596;43.216;27.904;2022-09-13T04:30:47;17.27;65.33
67799;SHT30;54596;43.216;27.904;2022-09-13T04:33:13;17.33;65.41
67799;SHT30;54596;43.216;27.904;2022-09-13T04:35:39;17.35;65.35
67799;SHT30;54596;43.216;27.904;2022-09-13T04:38:05;17.42;65.26
67799;SHT30;54596;43.216;27.904;2022-09-13T04:40:31;17.39;65.07
67799;SHT30;54596;43.216;27.904;2022-09-13T04:42:57;17.43;65.23
67799;SHT30;54596;43.216;27.904;2022-09-13T04:45:22;17.42;65.26
67799;SHT30;54596;43.216;27.904;2022-09-13T04:47:52;17.36;65.13
67799;SHT30;54596;43.216;27.904;2022-09-13T04:50:21;17.33;65.26
67799;SHT30;54596;43.216;27.904;2022-09-13T04:52:47;17.33;64.69
67799;SHT30;54596;43.216;27.904;2022-09-13T04:55:13;17.36;64.49
67799;SHT30;54596;43.216;27.904;2022-09-13T04:57:39;17.35;63.80
67799;SHT30;54596;43.216;27.904;2022-09-13T05:00:06;17.43;63.32
67799;SHT30;54596;43.216;27.904;2022-09-13T05:02:31;17.46;63.43
67799;SHT30;54596;43.216;27.904;2022-09-13T05:04:57;17.43;62.75
67799;SHT30;54596;43.216;27.904;2022-09-13T05:07:22;17.46;62.71
67799;SHT30;54596;43.216;27.904;2022-09-13T05:09:48;17.44;62.76
67799;SHT30;54596;43.216;27.904;2022-09-13T05:12:14;17.54;62.77
67799;SHT30;54596;43.216;27.904;2022-09-13T05:14:39;17.61;62.61
67799;SHT30;54596;43.216;27.904;2022-09-13T05:17:05;17.66;63.06
67799;SHT30;54596;43.216;27.904;2022-09-13T05:19:31;17.74;62.02
67799;SHT30;54596;43.216;27.904;2022-09-13T05:21:56;17.74;62.07
67799;SHT30;54596;43.216;27.904;2022-09-13T05:24:22;17.78;62.06
67799;SHT30;54596;43.216;27.904;2022-09-13T05:26:47;17.85;61.68
67799;SHT30;54596;43.216;27.904;2022-09-13T05:29:13;17.92;61.81
67799;SHT30;54596;43.216;27.904;2022-09-13T05:31:40;18.01;62.20
67799;SHT30;54596;43.216;27.904;2022-09-13T05:34:12;18.15;62.13
67799;SHT30;54596;43.216;27.904;2022-09-13T05:36:38;18.36;61.75
67799;SHT30;54596;43.216;27.904;2022-09-13T05:39:05;18.64;62.00
67799;SHT30;54596;43.216;27.904;2022-09-13T05:41:30;18.98;61.05
67799;SHT30;54596;43.216;27.904;2022-09-13T05:43:56;20.86;57.25
67799;SHT30;54596;43.216;27.904;2022-09-13T05:46:22;23.88;50.79
67799;SHT30;54596;43.216;27.904;2022-09-13T05:48:48;26.16;46.00
67799;SHT30;54596;43.216;27.904;2022-09-13T05:51:18;28.28;41.27
67799;SHT30;54596;43.216;27.904;2022-09-13T05:53:48;29.99;38.58
67799;SHT30;54596;43.216;27.904;2022-09-13T05:56:22;31.37;35.80
67799;SHT30;54596;43.216;27.904;2022-09-13T05:58:49;31.66;35.55
67799;SHT30;54596;43.216;27.904;2022-09-13T06:01:20;31.61;35.49
67799;SHT30;54596;43.216;27.904;2022-09-13T06:03:50;32.06;34.56
67799;SHT30;54596;43.216;27.904;2022-09-13T06:06:17;31.99;34.41
67799;SHT30;54596;43.216;27.904;2022-09-13T06:08:42;31.93;34.53
67799;SHT30;54596;43.216;27.904;2022-09-13T06:11:10;33.16;32.38
67799;SHT30;54596;43.216;27.904;2022-09-13T06:13:36;33.93;31.86
67799;SHT30;54596;43.216;27.904;2022-09-13T06:16:04;34.10;31.43
67799;SHT30;54596;43.216;27.904;2022-09-13T06:18:32;33.81;32.08
67799;SHT30;54596;43.216;27.904;2022-09-13T06:20:59;33.71;32.85
67799;SHT30;54596;43.216;27.904;2022-09-13T06:23:26;33.68;33.02
67799;SHT30;54596;43.216;27.904;2022-09-13T06:28:27;34.27;31.83
67799;SHT30;54596;43.216;27.904;2022-09-13T06:31:02;35.44;30.81
67799;SHT30;54596;43.216;27.904;2022-09-13T06:33:27;34.67;31.56
67799;SHT30;54596;43.216;27.904;2022-09-13T06:35:53;35.09;31.79
67799;SHT30;54596;43.216;27.904;2022-09-13T06:38:18;33.66;33.33
67799;SHT30;54596;43.216;27.904;2022-09-13T06:40:44;33.98;33.72
67799;SHT30;54596;43.216;27.904;2022-09-13T06:43:10;34.05;33.58
67799;SHT30;54596;43.216;27.904;2022-09-13T06:45:36;33.35;34.24
67799;SHT30;54596;43.216;27.904;2022-09-13T06:48:01;33.78;33.44
67799;SHT30;54596;43.216;27.904;2022-09-13T06:50:27;33.73;33.57
67799;SHT30;54596;43.216;27.904;2022-09-13T06:52:54;33.57;33.39
67799;SHT30;54596;43.216;27.904;2022-09-13T06:55:20;34.50;32.36
67799;SHT30;54596;43.216;27.904;2022-09-13T06:57:46;34.85;31.94
67799;SHT30;54596;43.216;27.904;2022-09-13T07:00:12;34.07;32.79
67799;SHT30;54596;43.216;27.904;2022-09-13T07:02:37;34.26;32.68
67799;SHT30;54596;43.216;27.904;2022-09-13T07:05:03;34.26;32.71
67799;SHT30;54596;43.216;27.904;2022-09-13T07:07:29;34.98;31.71
67799;SHT30;54596;43.216;27.904;2022-09-13T07:09:55;35.54;30.87
67799;SHT30;54596;43.216;27.904;2022-09-13T07:12:20;35.30;31.27
67799;SHT30;54596;43.216;27.904;2022-09-13T07:14:46;35.13;31.04
67799;SHT30;54596;43.216;27.904;2022-09-13T07:17:11;34.95;31.60
67799;SHT30;54596;43.216;27.904;2022-09-13T07:19:37;35.40;31.24
67799;SHT30;54596;43.216;27.904;2022-09-13T07:22:02;36.30;30.78
67799;SHT30;54596;43.216;27.904;2022-09-13T07:24:29;35.95;31.62
67799;SHT30;54596;43.216;27.904;2022-09-13T07:26:54;35.99;31.58
67799;SHT30;54596;43.216;27.904;2022-09-13T07:29:21;35.99;31.64
67799;SHT30;54596;43.216;27.904;2022-09-13T07:31:49;35.72;31.78
67799;SHT30;54596;43.216;27.904;2022-09-13T07:34:17;36.81;30.65
67799;SHT30;54596;43.216;27.904;2022-09-13T07:36:43;37.74;29.51
67799;SHT30;54596;43.216;27.904;2022-09-13T07:39:11;37.89;29.57
67799;SHT30;54596;43.216;27.904;2022-09-13T07:41:37;38.32;28.94
67799;SHT30;54596;43.216;27.904;2022-09-13T07:44:03;38.81;28.49
67799;SHT30;54596;43.216;27.904;2022-09-13T07:46:34;38.33;28.76
67799;SHT30;54596;43.216;27.904;2022-09-13T07:49:09;37.82;28.87
67799;SHT30;54596;43.216;27.904;2022-09-13T07:51:37;38.51;28.78
67799;SHT30;54596;43.216;27.904;2022-09-13T07:54:06;39.47;24.27
67799;SHT30;54596;43.216;27.904;2022-09-13T07:56:34;38.20;24.96
67799;SHT30;54596;43.216;27.904;2022-09-13T07:59:01;39.70;24.52
67799;SHT30;54596;43.216;27.904;2022-09-13T08:01:38;40.73;23.55
67799;SHT30;54596;43.216;27.904;2022-09-13T08:04:08;38.51;25.18
67799;SHT30;54596;43.216;27.904;2022-09-13T08:06:34;39.58;24.71
67799;SHT30;54596;43.216;27.904;2022-09-13T08:09:00;39.77;24.48
67799;SHT30;54596;43.216;27.904;2022-09-13T08:11:39;40.50;23.86
67799;SHT30;54596;43.216;27.904;2022-09-13T08:14:06;40.13;23.48
67799;SHT30;54596;43.216;27.904;2022-09-13T08:16:33;39.87;23.58
67799;SHT30;54596;43.216;27.904;2022-09-13T08:19:01;39.18;24.12
67799;SHT30;54596;43.216;27.904;2022-09-13T08:21:40;37.41;25.41
67799;SHT30;54596;43.216;27.904;2022-09-13T08:24:07;36.48;25.45
67799;SHT30;54596;43.216;27.904;2022-09-13T08:26:35;35.17;26.81
67799;SHT30;54596;43.216;27.904;2022-09-13T08:29:03;33.76;28.09
67799;SHT30;54596;43.216;27.904;2022-09-13T08:31:30;32.85;28.68
67799;SHT30;54596;43.216;27.904;2022-09-13T08:33:56;31.49;29.96
67799;SHT30;54596;43.216;27.904;2022-09-13T08:36:23;30.59;30.92
67799;SHT30;54596;43.216;27.904;2022-09-13T08:38:54;29.92;32.36
67799;SHT30;54596;43.216;27.904;2022-09-13T08:44:17;30.57;31.78
67799;SHT30;54596;43.216;27.904;2022-09-13T08:46:48;30.28;31.77
67799;SHT30;54596;43.216;27.904;2022-09-13T08:49:22;29.63;32.10
67799;SHT30;54596;43.216;27.904;2022-09-13T08:51:53;28.86;33.64
67799;SHT30;54596;43.216;27.904;2022-09-13T08:54:19;29.00;33.41
67799;SHT30;54596;43.216;27.904;2022-09-13T08:57:02;28.74;33.79
67799;SHT30;54596;43.216;27.904;2022-09-13T08:59:53;28.78;33.94
67799;SHT30;54596;43.216;27.904;2022-09-13T09:05:22;28.25;34.73
67799;SHT30;54596;43.216;27.904;2022-09-13T09:07:52;27.73;35.50
67799;SHT30;54596;43.216;27.904;2022-09-13T09:10:32;28.00;35.70
67799;SHT30;54596;43.216;27.904;2022-09-13T09:16:09;27.69;35.97
67799;SHT30;54596;43.216;27.904;2022-09-13T09:18:41;27.55;36.64
67799;SHT30;54596;43.216;27.904;2022-09-13T09:21:15;27.48;36.08
67799;SHT30;54596;43.216;27.904;2022-09-13T09:23:50;27.55;36.16
67799;SHT30;54596;43.216;27.904;2022-09-13T09:28:56;27.58;36.51
67799;SHT30;54596;43.216;27.904;2022-09-13T09:31:53;27.43;36.67
67799;SHT30;54596;43.216;27.904;2022-09-13T09:39:48;27.58;35.63
67799;SHT30;54596;43.216;27.904;2022-09-13T09:42:17;27.31;36.87
67799;SHT30;54596;43.216;27.904;2022-09-13T09:45:12;26.55;42.43
67799;SHT30;54596;43.216;27.904;2022-09-13T09:47:45;25.99;44.40
67799;SHT30;54596;43.216;27.904;2022-09-13T09:50:17;25.52;45.62
67799;SHT30;54596;43.216;27.904;2022-09-13T09:58:43;25.23;46.18
67799;SHT30;54596;43.216;27.904;2022-09-13T10:01:33;24.93;47.33
67799;SHT30;54596;43.216;27.904;2022-09-13T10:06:39;24.62;48.14
67799;SHT30;54596;43.216;27.904;2022-09-13T10:09:21;23.85;49.83
67799;SHT30;54596;43.216;27.904;2022-09-13T10:11:57;23.50;50.31
67799;SHT30;54596;43.216;27.904;2022-09-13T10:14:34;23.48;50.24
67799;SHT30;54596;43.216;27.904;2022-09-13T10:17:11;23.50;50.83
67799;SHT30;54596;43.216;27.904;2022-09-13T10:19:38;23.31;50.73
67799;SHT30;54596;43.216;27.904;2022-09-13T10:22:05;23.13;51.88
67799;SHT30;54596;43.216;27.904;2022-09-13T10:24:35;22.99;52.27
67799;SHT30;54596;43.216;27.904;2022-09-13T10:27:01;23.31;51.31
67799;SHT30;54596;43.216;27.904;2022-09-13T10:29:29;23.31;51.26
67799;SHT30;54596;43.216;27.904;2022-09-13T10:31:56;23.47;51.50
67799;SHT30;54596;43.216;27.904;2022-09-13T10:34:32;23.61;51.14
67799;SHT30;54596;43.216;27.904;2022-09-13T10:39:28;23.12;51.50
67799;SHT30;54596;43.216;27.904;2022-09-13T10:42:06;23.06;51.24
67799;SHT30;54596;43.216;27.904;2022-09-13T10:44:45;23.07;51.17
67799;SHT30;54596;43.216;27.904;2022-09-13T10:47:24;22.85;52.19
67799;SHT30;54596;43.216;27.904;2022-09-13T10:50:31;22.85;52.03
67799;SHT30;54596;43.216;27.904;2022-09-13T10:52:57;22.82;52.11
67799;SHT30;54596;43.216;27.904;2022-09-13T10:55:31;22.99;51.91
67799;SHT30;54596;43.216;27.904;2022-09-13T11:03:54;23.00;51.75
67799;SHT30;54596;43.216;27.904;2022-09-13T11:06:34;22.96;51.63
67799;SHT30;54596;43.216;27.904;2022-09-13T11:20:10;23.31;51.51
67799;SHT30;54596;43.216;27.904;2022-09-13T11:22:53;23.57;51.05
67799;SHT30;54596;43.216;27.904;2022-09-13T11:28:27;23.64;50.62
67799;SHT30;54596;43.216;27.904;2022-09-13T11:31:03;23.43;51.39
67799;SHT30;54596;43.216;27.904;2022-09-13T11:36:27;23.06;51.67
67799;SHT30;54596;43.216;27.904;2022-09-13T11:57:50;23.06;50.28
67799;SHT30;54596;43.216;27.904;2022-09-13T12:00:20;23.10;51.00
67799;SHT30;54596;43.216;27.904;2022-09-13T12:05:47;22.91;53.51
67799;SHT30;54596;43.216;27.904;2022-09-13T12:08:27;23.06;52.25
67799;SHT30;54596;43.216;27.904;2022-09-13T12:11:03;23.26;51.54
67799;SHT30;54596;43.216;27.904;2022-09-13T12:13:43;23.02;52.55
67799;SHT30;54596;43.216;27.904;2022-09-13T12:16:31;22.89;52.45
67799;SHT30;54596;43.216;27.904;2022-09-13T12:19:01;22.91;52.45
67799;SHT30;54596;43.216;27.904;2022-09-13T12:21:34;23.00;52.38
67799;SHT30;54596;43.216;27.904;2022-09-13T12:24:11;22.84;51.76
67799;SHT30;54596;43.216;27.904;2022-09-13T12:27:33;22.89;52.32
67799;SHT30;54596;43.216;27.904;2022-09-13T12:29:51;22.87;53.12
67799;SHT30;54596;43.216;27.904;2022-09-13T12:32:19;22.69;53.68
67799;SHT30;54596;43.216;27.904;2022-09-13T12:34:58;22.57;54.08
67799;SHT30;54596;43.216;27.904;2022-09-13T12:43:33;22.61;53.87
67799;SHT30;54596;43.216;27.904;2022-09-13T12:49:15;22.51;54.40
67799;SHT30;54596;43.216;27.904;2022-09-13T12:52:42;22.60;54.07
67799;SHT30;54596;43.216;27.904;2022-09-13T12:57:47;22.44;53.90
67799;SHT30;54596;43.216;27.904;2022-09-13T13:00:27;22.34;53.67
67799;SHT30;54596;43.216;27.904;2022-09-13T13:03:29;22.34;54.68
67799;SHT30;54596;43.216;27.904;2022-09-13T13:08:53;22.19;53.88
67799;SHT30;54596;43.216;27.904;2022-09-13T13:11:23;22.14;54.23
67799;SHT30;54596;43.216;27.904;2022-09-13T13:13:58;22.23;54.37
67799;SHT30;54596;43.216;27.904;2022-09-13T13:16:31;22.27;54.48
67799;SHT30;54596;43.216;27.904;2022-09-13T13:18:59;22.30;53.86
67799;SHT30;54596;43.216;27.904;2022-09-13T13:21:34;22.20;53.48
67799;SHT30;54596;43.216;27.904;2022-09-13T13:36:52;22.85;52.90
67799;SHT30;54596;43.216;27.904;2022-09-13T13:57:30;22.50;53.27
67799;SHT30;54596;43.216;27.904;2022-09-13T14:19:24;21.99;55.07
67799;SHT30;54596;43.216;27.904;2022-09-13T14:24:36;22.03;54.77
67799;SHT30;54596;43.216;27.904;2022-09-13T14:27:03;22.05;54.76
67799;SHT30;54596;43.216;27.904;2022-09-13T14:29:29;22.10;54.87
67799;SHT30;54596;43.216;27.904;2022-09-13T14:32:02;22.21;54.75
67799;SHT30;54596;43.216;27.904;2022-09-13T14:34:32;22.26;54.62
67799;SHT30;54596;43.216;27.904;2022-09-13T14:37:01;22.24;54.59
67799;SHT30;54596;43.216;27.904;2022-09-13T14:39:28;22.32;54.75
67799;SHT30;54596;43.216;27.904;2022-09-13T14:42:12;22.27;54.52
67799;SHT30;54596;43.216;27.904;2022-09-13T14:44:43;22.16;55.01
67799;SHT30;54596;43.216;27.904;2022-09-13T14:49:52;22.17;55.23
67799;SHT30;54596;43.216;27.904;2022-09-13T14:52:46;22.29;54.97
67799;SHT30;54596;43.216;27.904;2022-09-13T14:55:15;22.16;55.29
67799;SHT30;54596;43.216;27.904;2022-09-13T14:57:47;22.08;55.47
67799;SHT30;54596;43.216;27.904;2022-09-13T15:00:19;22.02;55.74
67799;SHT30;54596;43.216;27.904;2022-09-13T15:03:02;21.99;55.83
67799;SHT30;54596;43.216;27.904;2022-09-13T15:05:32;21.99;56.04
67799;SHT30;54596;43.216;27.904;2022-09-13T15:07:57;21.99;56.21
67799;SHT30;54596;43.216;27.904;2022-09-13T15:10:32;21.89;56.35
67799;SHT30;54596;43.216;27.904;2022-09-13T15:18:02;21.74;56.12
67799;SHT30;54596;43.216;27.904;2022-09-13T15:23:23;21.71;56.26
67799;SHT30;54596;43.216;27.904;2022-09-13T15:25:52;21.62;55.88
67799;SHT30;54596;43.216;27.904;2022-09-13T15:28:26;21.62;56.17
67799;SHT30;54596;43.216;27.904;2022-09-13T15:30:53;21.64;56.39
67799;SHT30;54596;43.216;27.904;2022-09-13T15:33:25;21.62;56.33
67799;SHT30;54596;43.216;27.904;2022-09-13T15:35:52;21.57;56.64
67799;SHT30;54596;43.216;27.904;2022-09-13T15:38:36;21.59;56.67
67799;SHT30;54596;43.216;27.904;2022-09-13T15:41:22;21.55;56.46
67799;SHT30;54596;43.216;27.904;2022-09-13T15:43:52;21.57;56.69
67799;SHT30;54596;43.216;27.904;2022-09-13T15:46:17;21.53;56.56
67799;SHT30;54596;43.216;27.904;2022-09-13T15:48:53;21.51;56.61
67799;SHT30;54596;43.216;27.904;2022-09-13T15:51:19;21.48;56.51
67799;SHT30;54596;43.216;27.904;2022-09-13T15:53:46;21.41;56.68
67799;SHT30;54596;43.216;27.904;2022-09-13T15:56:14;21.43;56.87
67799;SHT30;54596;43.216;27.904;2022-09-13T15:58:41;21.44;56.83
67799;SHT30;54596;43.216;27.904;2022-09-13T16:01:08;21.41;56.72
67799;SHT30;54596;43.216;27.904;2022-09-13T16:03:34;21.36;57.02
67799;SHT30;54596;43.216;27.904;2022-09-13T16:05:59;21.29;57.30
67799;SHT30;54596;43.216;27.904;2022-09-13T16:08:25;21.30;57.45
67799;SHT30;54596;43.216;27.904;2022-09-13T16:10:50;21.27;57.55
67799;SHT30;54596;43.216;27.904;2022-09-13T16:13:16;21.19;57.68
67799;SHT30;54596;43.216;27.904;2022-09-13T16:15:41;21.19;58.02
67799;SHT30;54596;43.216;27.904;2022-09-13T16:18:07;21.12;57.99
67799;SHT30;54596;43.216;27.904;2022-09-13T16:20:33;21.13;58.13
67799;SHT30;54596;43.216;27.904;2022-09-13T16:22:58;21.14;58.19
67799;SHT30;54596;43.216;27.904;2022-09-13T16:25:24;21.10;58.59
67799;SHT30;54596;43.216;27.904;2022-09-13T16:27:49;21.00;58.56
67799;SHT30;54596;43.216;27.904;2022-09-13T16:30:18;21.00;59.05
67799;SHT30;54596;43.216;27.904;2022-09-13T16:32:45;20.88;59.45
67799;SHT30;54596;43.216;27.904;2022-09-13T16:35:11;20.78;59.64
67799;SHT30;54596;43.216;27.904;2022-09-13T16:37:38;20.81;59.97
67799;SHT30;54596;43.216;27.904;2022-09-13T16:40:04;20.77;60.20
67799;SHT30;54596;43.216;27.904;2022-09-13T16:42:30;20.74;60.24
67799;SHT30;54596;43.216;27.904;2022-09-13T16:44:55;20.68;60.33
67799;SHT30;54596;43.216;27.904;2022-09-13T16:47:21;20.78;60.80
67799;SHT30;54596;43.216;27.904;2022-09-13T16:49:46;20.74;60.89
67799;SHT30;54596;43.216;27.904;2022-09-13T16:52:12;20.78;60.72
67799;SHT30;54596;43.216;27.904;2022-09-13T16:54:37;20.77;60.81
67799;SHT30;54596;43.216;27.904;2022-09-13T16:57:05;20.85;60.81
67799;SHT30;54596;43.216;27.904;2022-09-13T16:59:32;20.91;60.96
67799;SHT30;54596;43.216;27.904;2022-09-13T17:01:57;20.94;61.02
67799;SHT30;54596;43.216;27.904;2022-09-13T17:04:23;20.95;61.47
67799;SHT30;54596;43.216;27.904;2022-09-13T17:06:49;20.91;61.75
67799;SHT30;54596;43.216;27.904;2022-09-13T17:09:15;20.92;61.68
67799;SHT30;54596;43.216;27.904;2022-09-13T17:11:42;20.99;61.43
67799;SHT30;54596;43.216;27.904;2022-09-13T17:14:11;20.98;62.07
67799;SHT30;54596;43.216;27.904;2022-09-13T17:16:45;20.98;62.06
67799;SHT30;54596;43.216;27.904;2022-09-13T17:19:16;21.00;62.08
67799;SHT30;54596;43.216;27.904;2022-09-13T17:21:42;21.05;62.18
67799;SHT30;54596;43.216;27.904;2022-09-13T17:24:08;21.07;62.00
67799;SHT30;54596;43.216;27.904;2022-09-13T17:26:33;21.12;61.96
67799;SHT30;54596;43.216;27.904;2022-09-13T17:28:59;21.16;61.81
67799;SHT30;54596;43.216;27.904;2022-09-13T17:31:25;21.13;61.98
67799;SHT30;54596;43.216;27.904;2022-09-13T17:33:50;21.16;61.96
67799;SHT30;54596;43.216;27.904;2022-09-13T17:36:17;21.12;61.96
67799;SHT30;54596;43.216;27.904;2022-09-13T17:38:43;21.13;62.19
67799;SHT30;54596;43.216;27.904;2022-09-13T17:41:11;21.16;62.27
67799;SHT30;54596;43.216;27.904;2022-09-13T17:43:38;21.16;61.68
67799;SHT30;54596;43.216;27.904;2022-09-13T17:46:05;21.02;61.97
67799;SHT30;54596;43.216;27.904;2022-09-13T17:48:31;20.95;62.09
67799;SHT30;54596;43.216;27.904;2022-09-13T17:51:04;20.92;62.25
67799;SHT30;54596;43.216;27.904;2022-09-13T17:53:30;20.92;62.25
67799;SHT30;54596;43.216;27.904;2022-09-13T17:55:56;20.89;62.36
67799;SHT30;54596;43.216;27.904;2022-09-13T17:58:25;20.89;62.54
67799;SHT30;54596;43.216;27.904;2022-09-13T18:01:07;20.86;62.60
67799;SHT30;54596;43.216;27.904;2022-09-13T18:03:34;20.91;62.66
67799;SHT30;54596;43.216;27.904;2022-09-13T18:06:01;20.91;62.51
67799;SHT30;54596;43.216;27.904;2022-09-13T18:08:28;20.94;62.67
67799;SHT30;54596;43.216;27.904;2022-09-13T18:10:54;20.91;62.54
67799;SHT30;54596;43.216;27.904;2022-09-13T18:13:20;20.94;62.54
67799;SHT30;54596;43.216;27.904;2022-09-13T18:16:00;20.96;62.40
67799;SHT30;54596;43.216;27.904;2022-09-13T18:18:26;21.00;62.03
67799;SHT30;54596;43.216;27.904;2022-09-13T18:20:51;20.98;61.56
67799;SHT30;54596;43.216;27.904;2022-09-13T18:23:17;20.98;61.74
67799;SHT30;54596;43.216;27.904;2022-09-13T18:25:42;20.95;61.83
67799;SHT30;54596;43.216;27.904;2022-09-13T18:28:08;20.98;61.98
67799;SHT30;54596;43.216;27.904;2022-09-13T18:30:34;21.02;61.96
67799;SHT30;54596;43.216;27.904;2022-09-13T18:32:59;21.00;61.67
67799;SHT30;54596;43.216;27.904;2022-09-13T18:35:25;20.99;61.85
67799;SHT30;54596;43.216;27.904;2022-09-13T18:37:50;20.96;61.75
67799;SHT30;54596;43.216;27.904;2022-09-13T18:40:16;20.89;61.94
67799;SHT30;54596;43.216;27.904;2022-09-13T18:42:42;20.82;62.29
67799;SHT30;54596;43.216;27.904;2022-09-13T18:45:08;20.79;62.29
67799;SHT30;54596;43.216;27.904;2022-09-13T18:47:33;20.82;62.47
67799;SHT30;54596;43.216;27.904;2022-09-13T18:49:59;20.81;62.61
67799;SHT30;54596;43.216;27.904;2022-09-13T18:52:26;20.74;62.55
67799;SHT30;54596;43.216;27.904;2022-09-13T18:54:51;20.68;62.95
67799;SHT30;54596;43.216;27.904;2022-09-13T18:57:17;20.69;63.11